Ridgefield, North Carolina
Current Conditions -  °F | °C
As of 3:54 PM on Friday 31 Oct 2014 (Local Time) from KGSO Reporting Station
Broken Clouds Broken Clouds  
Wind Chill: 56°   Ceiling: 25000
Heat Index: 56°   Visibility: 10mi
Dew Point: 41°   Wind: 0mph
Humidity: 57%   Direction: NA
Pressure: 29.82"   Gusts: NA
Location:  36.1197°N, 79.8944°W
Report Text: KGSO 311954Z 00000KT 10SM SCT035 SCT080 BKN250 13/05 A2982 RMK AO2 SLP096 T01330050
Loading
Personal Weather Stations






























Interactive Weather Map
Tropical Storm Tracking
New forecast layout! Learn more

10-Day Weather Forecast

Advertisements
Track Severe Weather on mobile